Time;durP1;ratioP1;P1;durP2;ratioP2;P2;SDS_P1;SDS_P2;PMS_P1;PMS_P2;Temp;Humidity;BMP_temperature;BMP_pressure;BME280_temperature;BME280_humidity;BME280_pressure;Samples;Min_cycle;Max_cycle;Signal;HPM_P1;HPM_P2
2021/01/16 00:01:42;;;;;;;;;31.00;26.50;;;;;-4.49;58.79;101083.59;5132331;27;9055;-75
2021/01/16 00:04:10;;;;;;;;;25.00;25.00;;;;;-4.53;58.78;101079.66;5135045;27;8848;-75
2021/01/16 00:06:59;;;;;;;;;18.25;15.75;;;;;-4.46;58.04;101080.44;5130389;27;8917;-75
2021/01/16 00:09:55;;;;;;;;;23.75;23.75;;;;;-4.52;58.59;101092.13;5141820;27;8934;-75
2021/01/16 00:12:23;;;;;;;;;31.50;26.50;;;;;-4.34;59.14;101089.47;5142292;27;8829;-75
2021/01/16 00:15:20;;;;;;;;;19.75;19.75;;;;;-4.40;59.08;101098.44;5143635;27;8835;-75
2021/01/16 00:18:21;;;;;;;;;23.75;23.75;;;;;-4.30;58.34;101095.22;5137126;27;8819;-75
2021/01/16 00:21:17;;;;;;;;;26.75;26.75;;;;;-4.38;58.20;101103.63;5147149;27;8884;-75
2021/01/16 00:24:07;;;;;;;;;25.50;23.00;;;;;-4.60;57.70;101109.44;5132239;27;8825;-74
2021/01/16 00:27:02;;;;;;;;;19.00;19.00;;;;;-4.54;57.60;101107.72;5145472;27;8827;-74
2021/01/16 00:29:29;;;;;;;;;24.50;23.50;;;;;-4.49;58.54;101105.19;5136711;27;8824;-75
2021/01/16 00:32:25;;;;;;;;;22.00;22.00;;;;;-4.66;58.50;101114.91;5149999;27;8967;-77
2021/01/16 00:35:22;;;;;;;;;24.75;24.75;;;;;-4.61;58.29;101110.47;5146848;27;8831;-74
2021/01/16 00:38:18;;;;;;;;;27.75;26.50;;;;;-4.68;57.39;101098.06;5148236;27;8912;-76
2021/01/16 00:41:01;;;;;;;;;20.50;20.50;;;;;-4.87;56.68;101098.03;5130366;27;8829;-74
2021/01/16 00:43:57;;;;;;;;;33.25;30.75;;;;;-4.85;57.41;101104.00;5146194;27;8898;-74
2021/01/16 00:46:24;;;;;;;;;24.00;22.50;;;;;-4.78;57.85;101090.47;5144398;27;8843;-74
2021/01/16 00:48:51;;;;;;;;;19.50;16.00;;;;;-4.76;58.04;101101.88;5131458;27;8829;-75
2021/01/16 00:51:19;;;;;;;;;27.75;26.50;;;;;-4.93;57.39;101100.75;5147789;27;8850;-75
2021/01/16 00:54:15;;;;;;;;;25.00;25.00;;;;;-4.95;58.37;101114.47;5131131;27;8851;-74
2021/01/16 00:57:11;;;;;;;;;30.50;27.75;;;;;-4.86;57.80;101113.16;5135888;27;8813;-74
2021/01/16 01:00:07;;;;;;;;;34.00;31.00;;;;;-4.88;58.38;101109.84;5124230;27;8989;-74
2021/01/16 01:02:42;;;;;;;;;34.25;33.00;;;;;-4.98;58.50;101112.22;5125294;27;8859;-75
2021/01/16 01:05:38;;;;;;;;;32.25;31.25;;;;;-4.74;58.15;101104.38;5129688;27;8839;-75
2021/01/16 01:08:34;;;;;;;;;27.75;27.75;;;;;-4.80;58.86;101106.88;5125559;27;8818;-74
2021/01/16 01:11:29;;;;;;;;;25.00;25.00;;;;;-5.07;58.12;101113.50;5127270;27;8844;-74
2021/01/16 01:13:56;;;;;;;;;24.50;24.00;;;;;-4.96;58.15;101120.91;5127390;27;8852;-74
2021/01/16 01:16:52;;;;;;;;;30.25;28.25;;;;;-5.03;58.63;101123.66;5126872;27;8836;-74
2021/01/16 01:19:19;;;;;;;;;31.75;29.00;;;;;-5.03;59.35;101129.03;5127166;27;9529;-74
2021/01/16 01:22:14;;;;;;;;;24.00;23.25;;;;;-5.17;59.81;101126.66;5127726;27;8862;-74
2021/01/16 01:24:41;;;;;;;;;19.50;19.50;;;;;-5.01;60.05;101125.31;5127187;27;8935;-75
2021/01/16 01:27:13;;;;;;;;;25.50;25.50;;;;;-5.00;60.37;101122.38;5126679;27;8834;-74
2021/01/16 01:30:10;;;;;;;;;24.25;24.25;;;;;-5.00;60.29;101133.16;5113005;27;9549;-75
2021/01/16 01:33:13;;;;;;;;;27.50;24.25;;;;;-5.04;60.82;101134.66;5122431;27;8831;-75
2021/01/16 01:36:08;;;;;;;;;30.50;26.00;;;;;-4.97;61.02;101132.75;5123406;27;8851;-75
2021/01/16 01:39:04;;;;;;;;;35.50;29.75;;;;;-5.18;62.79;101133.09;5127583;27;8943;-75
2021/01/16 01:42:00;;;;;;;;;32.25;30.50;;;;;-5.04;60.92;101135.50;5125271;27;8965;-74
2021/01/16 01:44:28;;;;;;;;;20.00;18.25;;;;;-5.09;60.70;101131.78;5126295;27;8842;-74
2021/01/16 01:47:18;;;;;;;;;30.50;30.50;;;;;-5.23;61.18;101139.13;5118526;27;8843;-74
2021/01/16 01:50:09;;;;;;;;;27.25;24.75;;;;;-5.42;61.22;101134.66;5124682;27;8813;-74
2021/01/16 01:53:05;;;;;;;;;28.25;27.25;;;;;-5.13;61.21;101136.81;5122489;27;9549;-74
2021/01/16 01:56:02;;;;;;;;;25.50;24.00;;;;;-5.33;61.92;101147.69;5125796;27;8828;-75
2021/01/16 01:58:59;;;;;;;;;21.50;20.00;;;;;-5.25;61.59;101145.78;5123075;27;8905;-74
2021/01/16 02:01:29;;;;;;;;;29.50;27.00;;;;;-5.20;62.60;101146.78;5142787;27;8867;-74
2021/01/16 02:04:07;;;;;;;;;20.00;19.50;;;;;-5.37;62.05;101142.91;5128724;27;8844;-74
2021/01/16 02:07:25;;;;;;;;;23.00;22.75;;;;;-5.18;61.92;101149.28;5120686;27;8827;-75
2021/01/16 02:10:23;;;;;;;;;29.50;27.50;;;;;-5.34;62.29;101151.41;5120664;27;8844;-74
2021/01/16 02:13:19;;;;;;;;;25.50;25.50;;;;;-5.53;62.22;101159.59;5126919;27;8850;-74
2021/01/16 02:16:09;;;;;;;;;23.75;22.50;;;;;-5.67;61.97;101150.75;5126597;27;8852;-74
2021/01/16 02:19:06;;;;;;;;;23.00;22.50;;;;;-5.58;62.08;101167.50;5125404;27;8831;-74
2021/01/16 02:21:56;;;;;;;;;27.75;27.75;;;;;-5.60;62.31;101176.63;5125281;27;8845;-74
2021/01/16 02:24:30;;;;;;;;;18.75;18.75;;;;;-5.56;61.05;101170.81;5123981;27;8859;-74
2021/01/16 02:27:40;;;;;;;;;20.00;19.50;;;;;-5.60;61.41;101165.00;5120097;27;8854;-74
2021/01/16 02:30:41;;;;;;;;;16.25;16.25;;;;;-5.60;60.91;101165.84;5122954;27;8919;-74
2021/01/16 02:33:41;;;;;;;;;12.50;12.50;;;;;-5.64;60.98;101170.00;5125164;27;8875;-74
2021/01/16 02:36:55;;;;;;;;;18.50;18.50;;;;;-5.76;60.19;101187.00;5123983;27;8840;-74
2021/01/16 02:39:46;;;;;;;;;16.00;15.50;;;;;-5.53;58.92;101178.44;5126266;27;8901;-75
2021/01/16 02:42:56;;;;;;;;;18.75;18.00;;;;;-5.68;60.20;101181.41;5124536;27;8819;-74
2021/01/16 02:46:18;;;;;;;;;27.00;24.75;;;;;-5.84;60.04;101192.63;5123626;27;8854;-74
2021/01/16 02:49:26;;;;;;;;;19.00;19.00;;;;;-5.88;60.29;101184.97;5105558;27;8844;-74
2021/01/16 02:52:27;;;;;;;;;19.00;18.00;;;;;-5.97;59.63;101172.00;5123020;27;9601;-74
2021/01/16 02:54:59;;;;;;;;;21.25;21.25;;;;;-5.99;59.72;101176.72;5123499;27;8831;-74
2021/01/16 02:57:55;;;;;;;;;20.00;20.00;;;;;-5.88;59.81;101184.97;5125953;27;8820;-74
2021/01/16 03:00:51;;;;;;;;;24.00;21.50;;;;;-6.03;61.01;101180.91;5139451;27;8814;-74
2021/01/16 03:03:46;;;;;;;;;20.25;20.25;;;;;-5.99;60.03;101184.81;5143305;27;8828;-74
2021/01/16 03:06:50;;;;;;;;;15.50;15.50;;;;;-6.21;59.31;101194.97;5143712;27;8839;-74
2021/01/16 03:09:19;;;;;;;;;14.75;14.75;;;;;-6.26;59.35;101186.72;5123917;27;8847;-74
2021/01/16 03:12:16;;;;;;;;;24.50;24.50;;;;;-6.50;59.37;101185.47;5143575;27;8840;-74
2021/01/16 03:14:49;;;;;;;;;24.50;18.25;;;;;-6.47;59.65;101180.50;5143696;27;8840;-74
2021/01/16 03:17:23;;;;;;;;;19.00;18.50;;;;;-6.36;59.76;101187.16;5123781;27;8835;-73
2021/01/16 03:19:52;;;;;;;;;15.00;15.00;;;;;-6.53;59.61;101192.09;5146157;27;8832;-73
2021/01/16 03:22:25;;;;;;;;;17.50;17.50;;;;;-6.51;59.92;101200.81;5126779;27;8930;-74
2021/01/16 03:25:22;;;;;;;;;10.00;10.00;;;;;-6.68;59.69;101193.31;5145382;27;8984;-73
2021/01/16 03:27:51;;;;;;;;;22.25;19.50;;;;;-6.52;59.64;101199.16;5135343;27;8827;-74
2021/01/16 03:30:47;;;;;;;;;14.25;14.25;;;;;-6.56;61.12;101199.75;5130847;27;8867;-73
2021/01/16 03:33:42;;;;;;;;;15.50;15.50;;;;;-6.51;59.83;101210.75;5131505;27;9510;-74
2021/01/16 03:36:38;;;;;;;;;18.25;18.25;;;;;-6.84;59.33;101216.88;5145677;27;8825;-74
2021/01/16 03:39:35;;;;;;;;;21.50;20.00;;;;;-6.64;59.63;101219.63;5127825;27;8833;-74
2021/01/16 03:42:16;;;;;;;;;20.00;20.00;;;;;-6.80;58.55;101220.00;5143676;27;8872;-74
2021/01/16 03:45:17;;;;;;;;;18.00;18.00;;;;;-6.83;59.05;101231.16;5131310;27;8834;-74
2021/01/16 03:47:45;;;;;;;;;19.50;19.50;;;;;-6.74;59.56;101229.97;5143241;27;8853;-73
2021/01/16 03:50:40;;;;;;;;;15.25;15.25;;;;;-6.85;58.10;101230.53;5134603;27;8850;-72
2021/01/16 03:53:36;;;;;;;;;25.50;22.00;;;;;-6.94;58.27;101229.06;5135689;27;8805;-74
2021/01/16 03:56:32;;;;;;;;;19.50;19.50;;;;;-7.14;59.22;101232.50;5145154;27;8904;-74
2021/01/16 03:59:27;;;;;;;;;22.00;19.50;;;;;-7.28;59.61;101228.13;5134332;27;8832;-74
2021/01/16 04:02:23;;;;;;;;;19.25;17.25;;;;;-7.14;59.05;101234.38;5147603;27;8854;-74
2021/01/16 04:04:51;;;;;;;;;16.00;16.00;;;;;-7.31;59.20;101242.78;5130570;27;8851;-74
2021/01/16 04:07:48;;;;;;;;;23.50;21.75;;;;;-7.23;58.02;101259.75;5131106;27;9765;-74
2021/01/16 04:10:44;;;;;;;;;21.00;18.00;;;;;-7.35;58.89;101254.16;5133845;27;8829;-74
2021/01/16 04:13:40;;;;;;;;;18.25;18.25;;;;;-7.41;58.79;101258.44;5134681;27;8825;-74
2021/01/16 04:16:35;;;;;;;;;18.75;18.00;;;;;-7.50;59.00;101256.13;5146125;27;9549;-74
2021/01/16 04:19:17;;;;;;;;;20.00;20.00;;;;;-7.62;60.59;101264.72;5147799;27;8978;-73
2021/01/16 04:21:45;;;;;;;;;19.75;18.75;;;;;-7.45;59.03;101259.88;5149231;27;8967;-72
2021/01/16 04:24:41;;;;;;;;;21.75;20.00;;;;;-7.49;58.62;101273.91;5132721;27;8847;-72
2021/01/16 04:27:37;;;;;;;;;17.50;17.50;;;;;-7.84;59.08;101292.69;5132986;27;8841;-72
2021/01/16 04:30:32;;;;;;;;;21.50;20.25;;;;;-7.57;60.46;101299.91;5147338;27;8948;-73
2021/01/16 04:33:28;;;;;;;;;13.00;13.00;;;;;-7.57;59.59;101296.38;5148124;27;8818;-72
2021/01/16 04:35:56;;;;;;;;;15.75;15.75;;;;;-7.49;59.71;101273.91;5148608;27;8856;-73
2021/01/16 04:38:51;;;;;;;;;15.25;14.00;;;;;-7.26;58.66;101293.25;5147612;27;8834;-73
2021/01/16 04:41:20;;;;;;;;;20.75;17.75;;;;;-7.41;58.08;101288.00;5135572;27;8825;-72
2021/01/16 04:44:21;;;;;;;;;18.25;18.25;;;;;-7.39;59.58;101287.81;5143083;27;8874;-73
2021/01/16 04:46:50;;;;;;;;;14.75;13.50;;;;;-7.23;57.77;101275.91;5127387;27;8854;-75
2021/01/16 04:49:19;;;;;;;;;19.00;19.00;;;;;-7.30;58.45;101282.06;5146877;27;9553;-73
2021/01/16 04:51:48;;;;;;;;;21.00;20.50;;;;;-7.21;57.82;101280.03;5136188;27;8851;-71
2021/01/16 04:54:44;;;;;;;;;19.75;19.75;;;;;-7.31;58.65;101285.78;5131616;27;8886;-73
2021/01/16 04:57:42;;;;;;;;;15.50;14.50;;;;;-7.38;57.53;101281.41;5129183;27;8817;-73
2021/01/16 05:00:12;;;;;;;;;17.00;17.00;;;;;-7.26;58.46;101281.69;5132267;27;8836;-74
2021/01/16 05:03:13;;;;;;;;;26.00;26.00;;;;;-7.28;59.21;101285.41;5135328;27;8872;-73
2021/01/16 05:05:43;;;;;;;;;15.75;13.00;;;;;-7.34;58.44;101271.94;5128150;27;8839;-74
2021/01/16 05:08:41;;;;;;;;;25.75;25.75;;;;;-7.50;58.69;101274.94;5137080;27;8835;-74
2021/01/16 05:12:12;;;;;;;;;20.50;18.00;;;;;-7.36;58.63;101264.06;5147552;27;8845;-74
2021/01/16 05:14:55;;;;;;;;;24.75;22.75;;;;;-7.37;58.79;101256.19;5132370;27;8826;-74
2021/01/16 05:18:05;;;;;;;;;22.50;21.75;;;;;-7.07;57.44;101265.63;5133037;27;8836;-74
2021/01/16 05:20:47;;;;;;;;;22.75;22.75;;;;;-7.13;56.89;101249.47;5141926;27;8871;-74
2021/01/16 05:23:44;;;;;;;;;28.00;24.00;;;;;-7.08;57.29;101252.38;5137133;27;8833;-74
2021/01/16 05:26:49;;;;;;;;;21.50;20.00;;;;;-7.20;57.48;101260.22;5142717;27;8854;-73
2021/01/16 05:29:45;;;;;;;;;18.75;18.00;;;;;-7.17;57.83;101267.88;5145441;27;8855;-73
2021/01/16 05:32:41;;;;;;;;;15.25;13.50;;;;;-7.10;56.95;101259.84;5144763;27;8964;-73
2021/01/16 05:35:37;;;;;;;;;22.50;20.50;;;;;-7.28;56.96;101257.69;5146420;27;8829;-73
2021/01/16 05:38:38;;;;;;;;;20.00;18.75;;;;;-7.12;56.87;101281.53;5144631;27;8807;-73
2021/01/16 05:41:34;;;;;;;;;21.50;21.50;;;;;-6.96;56.86;101283.06;5147294;27;8907;-74
2021/01/16 05:44:25;;;;;;;;;17.25;17.25;;;;;-6.91;56.37;101288.66;5144683;27;8823;-73
2021/01/16 05:47:21;;;;;;;;;20.50;19.50;;;;;-6.92;56.94;101286.16;5133957;27;8852;-73
2021/01/16 05:49:50;;;;;;;;;16.25;16.25;;;;;-6.88;56.08;101296.31;5127416;27;8847;-73
2021/01/16 05:52:49;;;;;;;;;19.00;19.00;;;;;-7.06;56.95;101282.59;5144858;27;8979;-73
2021/01/16 05:55:39;;;;;;;;;20.50;20.00;;;;;-7.07;56.72;101281.75;5130180;27;9739;-73
2021/01/16 05:58:08;;;;;;;;;17.50;17.50;;;;;-6.83;57.59;101280.38;5114988;27;8852;-74
2021/01/16 06:01:06;;;;;;;;;20.25;18.75;;;;;-6.69;58.47;101291.19;5146253;27;8954;-73
2021/01/16 06:04:03;;;;;;;;;19.25;17.25;;;;;-6.59;58.23;101291.66;5137365;27;8817;-73
2021/01/16 06:07:06;;;;;;;;;19.25;19.00;;;;;-6.58;58.27;101290.63;5130071;27;8852;-73
2021/01/16 06:10:11;;;;;;;;;26.50;26.25;;;;;-6.39;58.03;101292.50;5145819;27;8805;-73
2021/01/16 06:13:16;;;;;;;;;15.75;15.00;;;;;-6.23;58.62;101291.28;5144856;27;8866;-74
2021/01/16 06:16:21;;;;;;;;;23.50;23.50;;;;;-6.34;55.12;101292.75;5151890;27;8821;-72
2021/01/16 06:18:56;;;;;;;;;21.50;21.50;;;;;-6.40;56.40;101298.09;5150204;27;8851;-73
2021/01/16 06:21:52;;;;;;;;;17.25;17.25;;;;;-6.30;56.13;101293.97;5128400;27;8843;-73
2021/01/16 06:24:49;;;;;;;;;17.75;17.50;;;;;-6.21;56.36;101294.59;5127584;27;8833;-72
2021/01/16 06:27:47;;;;;;;;;21.25;20.25;;;;;-6.21;56.02;101300.84;5145091;27;8916;-73
2021/01/16 06:30:32;;;;;;;;;19.50;17.50;;;;;-5.96;56.75;101302.94;5144084;27;8844;-71
2021/01/16 06:33:30;;;;;;;;;20.00;20.00;;;;;-6.04;56.56;101298.56;5144809;27;8895;-73
2021/01/16 06:36:00;;;;;;;;;17.75;14.75;;;;;-6.00;57.43;101289.03;5129172;27;8859;-73
2021/01/16 06:38:36;;;;;;;;;23.00;23.00;;;;;-5.58;57.92;101295.00;5139982;27;8835;-72
2021/01/16 06:41:12;;;;;;;;;20.50;16.00;;;;;-5.59;56.92;101304.13;5146679;27;8828;-72
2021/01/16 06:43:42;;;;;;;;;24.00;22.50;;;;;-5.58;55.74;101308.47;5128316;27;8848;-72
2021/01/16 06:46:14;;;;;;;;;27.50;24.00;;;;;-5.35;55.60;101310.72;5143398;27;8878;-73
2021/01/16 06:49:27;;;;;;;;;17.25;17.25;;;;;-5.39;54.60;101317.56;5144468;27;8855;-73
2021/01/16 06:51:59;;;;;;;;;8.50;8.50;;;;;-5.30;53.86;101318.97;5144228;27;8839;-74
2021/01/16 06:54:38;;;;;;;;;24.75;24.75;;;;;-5.25;53.26;101315.66;5112124;27;9577;-74
2021/01/16 06:57:14;;;;;;;;;27.00;24.00;;;;;-5.29;52.72;101317.97;5112421;27;8951;-72
2021/01/16 06:59:43;;;;;;;;;19.50;18.75;;;;;-5.51;52.67;101320.06;5140160;27;8849;-74
2021/01/16 07:02:37;;;;;;;;;20.25;18.25;;;;;-5.29;52.89;101317.97;5142770;27;9588;-76
2021/01/16 07:05:24;;;;;;;;;22.00;22.00;;;;;-5.10;51.29;101317.06;5128526;27;8823;-78
2021/01/16 07:08:11;;;;;;;;;19.25;19.25;;;;;-5.04;51.51;101315.41;5145958;27;9645;-75
2021/01/16 07:11:09;;;;;;;;;25.25;24.75;;;;;-5.01;51.80;101330.31;5156894;27;8990;-77
2021/01/16 07:14:04;;;;;;;;;25.75;25.75;;;;;-5.06;52.23;101336.34;5151076;27;9551;-76
2021/01/16 07:17:00;;;;;;;;;21.75;20.00;;;;;-5.35;52.53;101340.38;5143862;27;8817;-76
2021/01/16 07:19:46;;;;;;;;;21.75;21.75;;;;;-5.04;52.54;101350.47;5130728;27;8833;-77
2021/01/16 07:22:15;;;;;;;;;18.25;18.25;;;;;-5.04;53.22;101351.28;5125368;27;8882;-75
2021/01/16 07:24:45;;;;;;;;;24.00;24.00;;;;;-4.83;52.25;101349.34;5143096;27;8843;-75
2021/01/16 07:27:33;;;;;;;;;28.00;26.00;;;;;-4.74;51.56;101352.66;5144109;27;9379;-77
2021/01/16 07:30:33;;;;;;;;;28.00;26.25;;;;;-4.48;51.53;101358.75;5138645;27;8824;-77
2021/01/16 07:33:06;;;;;;;;;33.75;32.00;;;;;-4.45;51.90;101362.06;5145476;27;8823;-77
2021/01/16 07:36:04;;;;;;;;;23.00;22.75;;;;;-4.42;51.36;101354.38;5132143;27;8821;-77
2021/01/16 07:39:03;;;;;;;;;26.25;26.25;;;;;-4.37;51.99;101359.97;5146778;27;8834;-77
2021/01/16 07:42:08;;;;;;;;;27.50;25.00;;;;;-4.10;51.67;101352.50;5144716;27;8835;-77
2021/01/16 07:44:41;;;;;;;;;29.50;26.50;;;;;-4.15;51.91;101359.59;5160431;27;8852;-77
2021/01/16 07:47:20;;;;;;;;;38.00;36.00;;;;;-3.92;51.64;101365.28;5150400;27;8847;-77
2021/01/16 07:49:57;;;;;;;;;32.50;32.50;;;;;-4.07;51.35;101365.56;5145370;27;8868;-77
2021/01/16 07:52:52;;;;;;;;;30.00;29.25;;;;;-3.85;52.19;101373.34;5143348;27;8962;-77
2021/01/16 07:55:20;;;;;;;;;29.75;26.75;;;;;-3.71;50.59;101373.03;5139107;27;8823;-76
2021/01/16 07:58:22;;;;;;;;;32.25;27.00;;;;;-3.83;50.32;101371.22;5154641;27;8835;-76
2021/01/16 08:01:40;;;;;;;;;16.00;16.00;;;;;-4.64;51.95;101375.44;5144474;27;9541;-77
2021/01/16 08:05:06;;;;;;;;;22.00;22.00;;;;;-4.18;51.23;101373.56;5139862;27;8914;-77
2021/01/16 08:08:34;;;;;;;;;20.00;20.00;;;;;-3.96;52.02;101373.00;5134001;27;8861;-77
2021/01/16 08:11:35;;;;;;;;;16.50;16.00;;;;;-4.07;51.97;101368.28;5130706;27;8846;-77
2021/01/16 08:14:35;;;;;;;;;18.75;18.75;;;;;-3.85;50.20;101365.22;5126990;27;8825;-76
2021/01/16 08:17:26;;;;;;;;;15.50;15.00;;;;;-3.84;50.27;101361.47;5144781;27;8835;-77
2021/01/16 08:20:29;;;;;;;;;13.25;12.75;;;;;-3.77;49.95;101363.06;5144432;27;8889;-76
2021/01/16 08:23:25;;;;;;;;;14.00;14.00;;;;;-3.61;49.92;101369.00;5134142;27;8821;-77
2021/01/16 08:26:05;;;;;;;;;4.00;4.00;;;;;-3.39;49.91;101367.56;5127345;27;9573;-77
2021/01/16 08:28:37;;;;;;;;;0.75;0.75;;;;;-3.31;49.79;101366.44;5145779;27;8944;-77
2021/01/16 08:31:33;;;;;;;;;15.00;13.00;;;;;-3.10;49.33;101360.63;5141949;27;8857;-78
2021/01/16 08:34:57;;;;;;;;;15.75;15.75;;;;;-3.27;49.79;101360.38;5142240;27;8821;-76
2021/01/16 08:37:54;;;;;;;;;10.00;10.00;;;;;-3.37;49.37;101368.19;5144361;27;8834;-76
2021/01/16 08:41:03;;;;;;;;;9.75;9.75;;;;;-3.72;50.16;101352.44;5128548;27;9588;-76
2021/01/16 08:43:59;;;;;;;;;10.50;9.00;;;;;-3.64;49.70;101357.56;5133769;27;8835;-76
2021/01/16 08:47:07;;;;;;;;;9.75;9.75;;;;;-3.24;49.29;101345.56;5133645;27;8838;-76
2021/01/16 08:50:13;;;;;;;;;19.00;17.50;;;;;-2.53;49.32;101334.13;5146255;27;8827;-77
2021/01/16 08:53:21;;;;;;;;;13.00;13.00;;;;;-1.84;46.96;101340.00;5147484;27;8980;-76
2021/01/16 08:56:23;;;;;;;;;12.67;12.67;;;;;-1.56;44.79;101334.75;5128380;27;8881;-76
2021/01/16 08:59:24;;;;;;;;;13.00;13.00;;;;;-1.53;46.48;101323.44;5135853;27;8848;-75
2021/01/16 09:02:20;;;;;;;;;13.00;13.00;;;;;-1.63;45.61;101323.19;5143778;27;8828;-77
2021/01/16 09:05:25;;;;;;;;;21.33;18.33;;;;;-1.27;46.09;101330.28;5133460;27;8936;-76
2021/01/16 09:08:26;;;;;;;;;12.67;12.00;;;;;-1.68;47.15;101333.94;5131026;27;8840;-76
2021/01/16 09:11:10;;;;;;;;;17.33;17.33;;;;;-1.82;48.24;101329.78;5146989;27;8819;-76
2021/01/16 09:13:47;;;;;;;;;12.00;12.00;;;;;-1.54;46.84;101321.75;5132090;27;9593;-76
2021/01/16 09:16:37;;;;;;;;;12.67;12.67;;;;;-1.56;44.74;101309.50;5146542;27;8841;-76
2021/01/16 09:19:09;;;;;;;;;11.33;11.33;;;;;-1.51;45.89;101332.16;5132229;27;8865;-75
2021/01/16 09:21:36;;;;;;;;;14.33;14.33;;;;;-0.77;43.92;101320.75;5126364;27;8823;-76
2021/01/16 09:24:20;;;;;;;;;16.67;15.33;;;;;-0.38;42.70;101319.09;5119669;27;8847;-76
2021/01/16 09:26:47;;;;;;;;;9.33;9.33;;;;;-0.03;42.85;101318.91;5146525;27;8877;-77
2021/01/16 09:29:27;;;;;;;;;19.00;17.00;;;;;0.20;43.94;101324.22;5133778;27;8893;-76
2021/01/16 09:32:00;;;;;;;;;15.00;15.00;;;;;-0.76;44.45;101311.56;5131947;27;8831;-76
2021/01/16 09:34:35;;;;;;;;;14.33;13.67;;;;;-0.31;44.10;101315.19;5147427;27;8910;-76
2021/01/16 09:37:03;;;;;;;;;18.67;12.67;;;;;0.20;42.98;101321.50;5110604;27;8845;-76
2021/01/16 09:39:32;;;;;;;;;6.67;6.00;;;;;-0.32;43.53;101326.25;5147379;27;8823;-76
2021/01/16 09:42:28;;;;;;;;;13.00;13.00;;;;;-1.10;44.58;101326.84;5130942;27;8988;-76
2021/01/16 09:45:50;;;;;;;;;13.00;13.00;;;;;-0.34;44.66;101315.63;5147980;27;8817;-76
2021/01/16 09:48:32;;;;;;;;;14.33;14.33;;;;;-0.55;44.61;101308.16;5143704;27;8862;-75
2021/01/16 09:51:29;;;;;;;;;14.67;14.00;;;;;-0.01;45.76;101314.88;5144104;27;8839;-75
2021/01/16 09:54:31;;;;;;;;;16.00;15.00;;;;;0.13;45.53;101322.72;5133322;27;8805;-75
2021/01/16 09:56:59;;;;;;;;;18.33;16.00;;;;;-0.11;46.28;101317.44;5111526;27;8954;-75
2021/01/16 09:59:26;;;;;;;;;12.00;9.00;;;;;-0.20;45.95;101308.03;5135129;27;8817;-75
2021/01/16 10:02:24;;;;;;;;;19.67;19.67;;;;;0.07;46.39;101310.94;5144152;27;8807;-75
2021/01/16 10:05:32;;;;;;;;;18.67;16.00;;;;;0.41;46.61;101303.63;5130800;27;8993;-74
2021/01/16 10:08:33;;;;;;;;;17.00;16.67;;;;;-0.01;47.64;101314.06;5146180;27;8825;-76
2021/01/16 10:11:12;;;;;;;;;12.33;12.00;;;;;0.20;47.42;101310.63;5140495;27;9594;-76
2021/01/16 10:14:22;;;;;;;;;11.67;11.33;;;;;-0.85;47.74;101305.66;5131074;27;8891;-74
2021/01/16 10:17:11;;;;;;;;;13.00;13.00;;;;;-0.37;48.87;101291.69;5130724;27;9612;-75
2021/01/16 10:20:13;;;;;;;;;10.00;10.00;;;;;-0.93;49.73;101295.16;5147020;27;8832;-75
2021/01/16 10:22:53;;;;;;;;;16.67;16.67;;;;;-0.16;47.45;101283.88;5145761;27;8827;-74
2021/01/16 10:26:00;;;;;;;;;12.33;12.33;;;;;0.35;47.19;101282.00;5145912;27;8856;-74
2021/01/16 10:28:28;;;;;;;;;6.33;6.33;;;;;-0.78;47.38;101278.34;5145052;27;8827;-73
2021/01/16 10:31:26;;;;;;;;;11.33;11.33;;;;;0.01;47.32;101271.13;5145309;27;8994;-74
2021/01/16 10:34:29;;;;;;;;;9.00;7.67;;;;;0.37;45.67;101286.13;5146354;27;8817;-74
2021/01/16 10:37:29;;;;;;;;;12.00;12.00;;;;;0.69;45.39;101282.78;5133218;27;8843;-75
2021/01/16 10:40:29;;;;;;;;;15.67;14.33;;;;;0.53;46.14;101268.94;5143770;27;8877;-76
2021/01/16 10:43:32;;;;;;;;;9.67;9.67;;;;;0.45;45.26;101271.28;5129761;27;8823;-75
2021/01/16 10:46:06;;;;;;;;;12.00;10.00;;;;;0.49;44.67;101267.00;5145031;27;8816;-75
2021/01/16 10:48:38;;;;;;;;;9.00;9.00;;;;;0.94;45.04;101260.53;5146778;27;8829;-75
2021/01/16 10:51:23;;;;;;;;;11.33;11.33;;;;;0.81;45.07;101265.25;5128571;27;8845;-76
2021/01/16 10:53:56;;;;;;;;;13.00;13.00;;;;;1.22;43.98;101254.03;5143939;27;8833;-76
2021/01/16 10:56:25;;;;;;;;;10.00;10.00;;;;;1.49;43.45;101249.44;5127980;27;8827;-74
2021/01/16 10:59:24;;;;;;;;;14.67;12.67;;;;;1.20;41.66;101246.13;5144745;27;8892;-74
2021/01/16 11:01:52;;;;;;;;;7.00;7.00;;;;;0.89;41.76;101250.38;5123644;27;11525;-73
2021/01/16 11:04:48;;;;;;;;;13.00;13.00;;;;;0.42;43.00;101256.28;5142157;27;9585;-73
2021/01/16 11:07:49;;;;;;;;;7.00;6.67;;;;;-0.30;45.43;101254.31;5142414;27;9529;-73
2021/01/16 11:10:48;;;;;;;;;10.00;10.00;;;;;0.89;43.17;101264.00;5142075;27;8862;-74
2021/01/16 11:13:47;;;;;;;;;13.00;13.00;;;;;1.11;43.36;101248.50;5142478;27;9596;-74
2021/01/16 11:16:29;;;;;;;;;10.67;10.67;;;;;1.26;43.09;101252.47;5143652;27;8847;-74
2021/01/16 11:19:07;;;;;;;;;3.00;3.00;;;;;1.27;43.72;101248.66;5146872;27;8850;-73
2021/01/16 11:21:52;;;;;;;;;8.00;3.67;;;;;1.48;43.26;101247.81;5145637;27;8841;-74
2021/01/16 11:24:54;;;;;;;;;11.67;7.67;;;;;0.68;43.43;101257.44;5142491;27;8895;-73
2021/01/16 11:28:07;;;;;;;;;1.67;1.67;;;;;0.30;44.34;101252.00;5144303;27;9717;-74
2021/01/16 11:31:07;;;;;;;;;13.67;13.67;;;;;1.16;46.31;101242.28;5128550;27;8836;-73
2021/01/16 11:33:43;;;;;;;;;10.00;10.00;;;;;1.28;44.82;101251.13;5142808;27;9617;-74
2021/01/16 11:37:37;;;;;;;;;17.33;17.33;;;;;1.31;43.29;101239.72;5126266;27;8869;-73
2021/01/16 11:40:36;;;;;;;;;8.33;8.33;;;;;0.68;43.19;101249.28;5061937;28;8830;-73
2021/01/16 11:43:32;;;;;;;;;7.67;7.67;;;;;0.72;43.90;101250.44;5052884;27;8942;-73
2021/01/16 11:46:27;;;;;;;;;15.67;15.67;;;;;1.20;45.02;101253.47;5145525;27;8870;-72
2021/01/16 11:48:55;;;;;;;;;23.33;16.00;;;;;0.84;46.86;101261.19;5142298;27;8835;-72
2021/01/16 11:51:40;;;;;;;;;12.33;12.33;;;;;0.85;48.03;101251.16;5138503;27;8840;-72
2021/01/16 11:54:39;;;;;;;;;7.00;7.00;;;;;0.83;47.88;101259.56;5137177;27;8837;-73
2021/01/16 11:57:35;;;;;;;;;10.00;10.00;;;;;0.78;48.81;101260.34;5131424;27;8884;-72
2021/01/16 12:00:32;;;;;;;;;9.00;9.00;;;;;0.38;49.32;101254.28;5124496;27;9521;-72
2021/01/16 12:03:25;;;;;;;;;13.67;13.67;;;;;0.16;50.17;101257.78;5121267;27;8912;-72
2021/01/16 12:06:21;;;;;;;;;12.00;12.00;;;;;0.60;49.83;101273.41;5121683;27;8843;-71
2021/01/16 12:08:49;;;;;;;;;12.00;12.00;;;;;0.50;49.81;101269.44;5122685;27;8842;-72
2021/01/16 12:11:53;;;;;;;;;9.67;9.67;;;;;0.15;50.67;101266.16;5124180;27;9529;-73
2021/01/16 12:14:34;;;;;;;;;18.00;16.00;;;;;-0.19;50.41;101265.34;5129058;27;8821;-71
2021/01/16 12:17:41;;;;;;;;;13.00;13.00;;;;;-0.13;52.03;101257.03;5126563;27;8838;-71
2021/01/16 12:20:37;;;;;;;;;12.67;12.67;;;;;0.20;51.37;101269.81;5130391;27;8908;-72
2021/01/16 12:23:44;;;;;;;;;10.00;8.33;;;;;0.25;50.34;101260.91;5126346;27;8836;-73
2021/01/16 12:26:35;;;;;;;;;14.67;14.67;;;;;-0.05;51.94;101263.97;5127933;27;9635;-73
2021/01/16 12:29:36;;;;;;;;;9.67;9.67;;;;;-0.23;52.41;101258.72;5126589;27;9004;-72
2021/01/16 12:32:09;;;;;;;;;16.33;16.33;;;;;0.02;51.80;101266.53;5124285;27;8926;-72
2021/01/16 12:34:52;;;;;;;;;12.33;12.33;;;;;-0.44;52.08;101268.44;5128685;27;9654;-72
2021/01/16 12:37:48;;;;;;;;;20.67;18.33;;;;;-0.07;51.67;101274.28;5130617;27;8860;-72
2021/01/16 12:40:43;;;;;;;;;12.67;12.00;;;;;-0.38;52.83;101270.19;5126289;27;8843;-73
2021/01/16 12:43:25;;;;;;;;;11.33;11.33;;;;;-0.12;52.84;101276.88;5126723;27;8905;-72
2021/01/16 12:46:21;;;;;;;;;13.00;13.00;;;;;-0.52;53.17;101277.81;5126439;27;8807;-73
2021/01/16 12:48:49;;;;;;;;;13.33;12.33;;;;;-0.18;52.44;101269.72;5127543;27;9549;-72
2021/01/16 12:51:49;;;;;;;;;11.33;11.33;;;;;-0.39;52.17;101261.19;5124736;27;8848;-71
2021/01/16 12:54:44;;;;;;;;;9.67;9.67;;;;;-0.44;51.41;101266.53;5127320;27;8819;-72
2021/01/16 12:57:42;;;;;;;;;1.00;1.00;;;;;-0.57;52.77;101272.25;5127279;27;8927;-73
2021/01/16 13:00:39;;;;;;;;;10.00;10.00;;;;;-0.59;52.97;101280.66;5139434;27;8844;-73
2021/01/16 13:03:21;;;;;;;;;7.00;7.00;;;;;-0.69;53.11;101269.63;5144274;27;8831;-73
2021/01/16 13:05:48;;;;;;;;;11.33;11.33;;;;;-0.49;52.64;101273.78;5125982;27;9708;-73